createdAt,value
2022-08-24T00:00:38.065Z,66.40
2022-08-24T00:03:07.262Z,66.50
2022-08-24T00:05:35.179Z,66.50
2022-08-24T00:08:03.277Z,66.50
2022-08-24T00:10:31.219Z,66.60
2022-08-24T00:12:58.698Z,66.50
2022-08-24T00:15:26.015Z,66.70
2022-08-24T00:17:53.396Z,66.90
2022-08-24T00:20:20.998Z,66.80
2022-08-24T00:22:48.816Z,66.80
2022-08-24T00:25:19.834Z,66.90
2022-08-24T00:27:47.675Z,66.80
2022-08-24T00:30:17.777Z,67.30
2022-08-24T00:32:46.811Z,67.60
2022-08-24T00:35:18.221Z,67.20
2022-08-24T00:37:47.326Z,67.30
2022-08-24T00:40:22.139Z,67.10
2022-08-24T00:42:50.704Z,67.60
2022-08-24T00:45:20.205Z,67.50
2022-08-24T00:48:01.199Z,67.70
2022-08-24T00:50:41.078Z,67.80
2022-08-24T00:53:13.443Z,67.90
2022-08-24T00:55:49.370Z,67.50
2022-08-24T00:58:23.729Z,67.70
2022-08-24T01:00:58.918Z,67.80
2022-08-24T01:03:28.527Z,68.20
2022-08-24T01:05:56.626Z,67.80
2022-08-24T01:08:24.672Z,67.70
2022-08-24T01:11:00.811Z,67.80
2022-08-24T01:13:29.519Z,68.50
2022-08-24T01:16:02.164Z,68.30
2022-08-24T01:18:49.050Z,68.10
2022-08-24T01:21:24.638Z,68.00
2022-08-24T01:23:55.868Z,68.30
2022-08-24T01:26:32.956Z,68.60
2022-08-24T01:29:09.816Z,69.30
2022-08-24T01:31:37.730Z,69.80
2022-08-24T01:34:06.631Z,69.30
2022-08-24T01:36:56.835Z,69.00
2022-08-24T01:39:30.053Z,69.10
2022-08-24T01:41:59.232Z,68.90
2022-08-24T01:44:30.048Z,68.60
2022-08-24T01:46:58.305Z,68.50
2022-08-24T01:49:33.061Z,68.60
2022-08-24T01:52:01.563Z,68.60
2022-08-24T01:54:29.116Z,68.50
2022-08-24T01:56:56.823Z,68.70
2022-08-24T01:59:25.347Z,68.60
2022-08-24T02:02:02.986Z,68.70
2022-08-24T02:04:32.768Z,69.10
2022-08-24T02:07:00.174Z,68.90
2022-08-24T02:09:32.785Z,69.00
2022-08-24T02:12:02.327Z,69.00
2022-08-24T02:14:35.820Z,69.00
2022-08-24T02:17:05.491Z,69.10
2022-08-24T02:19:33.459Z,69.50
2022-08-24T02:22:00.995Z,69.80
2022-08-24T02:24:29.530Z,69.60
2022-08-24T02:26:59.104Z,69.70
2022-08-24T02:29:27.192Z,69.70
2022-08-24T02:31:54.520Z,69.60
2022-08-24T02:34:22.291Z,69.50
2022-08-24T02:36:49.655Z,69.50
2022-08-24T02:39:17.256Z,69.50
2022-08-24T02:41:47.500Z,69.50
2022-08-24T02:44:15.392Z,69.60
2022-08-24T02:46:43.295Z,69.80
2022-08-24T02:49:12.685Z,70.40
2022-08-24T02:51:45.794Z,70.10
2022-08-24T02:54:21.683Z,70.20
2022-08-24T02:56:51.975Z,70.10
2022-08-24T02:59:20.803Z,69.80
2022-08-24T03:01:50.155Z,69.90
2022-08-24T03:04:20.220Z,69.80
2022-08-24T03:06:48.075Z,69.60
2022-08-24T03:09:16.176Z,69.80
2022-08-24T03:11:45.204Z,70.10
2022-08-24T03:14:14.081Z,70.20
2022-08-24T03:16:41.963Z,70.30
2022-08-24T03:19:09.791Z,70.10
2022-08-24T03:21:38.857Z,70.20
2022-08-24T03:24:06.660Z,70.20
2022-08-24T03:26:34.323Z,70.60
2022-08-24T03:29:02.380Z,70.40
2022-08-24T03:31:33.252Z,70.50
2022-08-24T03:34:01.042Z,70.50
2022-08-24T03:36:28.730Z,70.40
2022-08-24T03:38:56.487Z,70.40
2022-08-24T03:41:24.072Z,70.30
2022-08-24T03:43:51.593Z,70.40
2022-08-24T03:46:26.028Z,70.40
2022-08-24T03:48:55.569Z,70.60
2022-08-24T03:51:26.474Z,70.50
2022-08-24T03:53:56.713Z,70.60
2022-08-24T03:56:27.700Z,70.30
2022-08-24T03:58:56.144Z,71.00
2022-08-24T04:01:25.538Z,71.30
2022-08-24T04:03:55.308Z,71.10
2022-08-24T04:06:27.359Z,70.90
2022-08-24T04:08:55.859Z,71.00
2022-08-24T04:11:27.544Z,70.90
2022-08-24T04:13:57.043Z,71.00
2022-08-24T04:16:26.099Z,71.10
2022-08-24T04:19:02.791Z,71.10
2022-08-24T04:21:35.677Z,71.20
2022-08-24T04:24:08.786Z,71.10
2022-08-24T04:26:45.808Z,71.00
2022-08-24T04:29:19.363Z,70.90
2022-08-24T04:31:53.702Z,70.80
2022-08-24T04:34:22.551Z,70.80
2022-08-24T04:36:51.116Z,70.90
2022-08-24T04:39:18.983Z,70.90
2022-08-24T04:42:06.657Z,71.00
2022-08-24T04:44:38.291Z,71.10
2022-08-24T04:47:08.335Z,71.40
2022-08-24T04:49:37.476Z,71.70
2022-08-24T04:52:08.092Z,72.00
2022-08-24T04:54:35.628Z,72.10
2022-08-24T04:57:18.606Z,72.20
2022-08-24T04:59:47.545Z,72.70
2022-08-24T05:02:15.479Z,72.80
2022-08-24T05:04:45.892Z,73.20
2022-08-24T05:07:14.163Z,73.60
2022-08-24T05:09:45.022Z,73.60
2022-08-24T05:12:13.852Z,73.20
2022-08-24T05:14:50.527Z,72.80
2022-08-24T05:17:18.794Z,72.30
2022-08-24T05:19:46.370Z,72.30
2022-08-24T05:22:13.927Z,71.70
2022-08-24T05:24:47.035Z,71.10
2022-08-24T05:27:15.995Z,69.90
2022-08-24T05:29:47.340Z,68.70
2022-08-24T05:32:17.469Z,67.20
2022-08-24T05:34:45.327Z,65.50
2022-08-24T05:37:12.651Z,63.80
2022-08-24T05:40:12.740Z,62.40
2022-08-24T05:42:44.183Z,60.30
2022-08-24T05:45:12.796Z,59.00
2022-08-24T05:47:40.723Z,57.90
2022-08-24T05:50:22.429Z,56.90
2022-08-24T05:52:50.028Z,56.20
2022-08-24T05:55:17.733Z,55.30
2022-08-24T05:57:45.599Z,53.90
2022-08-24T06:00:18.789Z,53.30
2022-08-24T06:02:52.852Z,52.40
2022-08-24T06:05:21.931Z,51.80
2022-08-24T06:07:49.870Z,51.00
2022-08-24T06:10:35.925Z,50.50
2022-08-24T06:13:05.483Z,49.70
2022-08-24T06:15:33.332Z,49.90
2022-08-24T06:18:01.014Z,48.70
2022-08-24T06:20:29.468Z,47.80
2022-08-24T06:22:58.059Z,47.10
2022-08-24T06:25:50.947Z,46.50
2022-08-24T06:28:21.495Z,45.80
2022-08-24T06:30:49.379Z,44.90
2022-08-24T06:33:26.050Z,44.50
2022-08-24T06:35:57.968Z,44.50
2022-08-24T06:38:25.356Z,43.60
2022-08-24T06:40:54.263Z,43.40
2022-08-24T06:43:22.760Z,43.00
2022-08-24T06:45:55.368Z,42.50
2022-08-24T06:48:30.335Z,42.00
2022-08-24T06:50:58.756Z,41.80
2022-08-24T06:53:27.159Z,41.30
2022-08-24T06:55:58.416Z,41.20
2022-08-24T06:58:28.591Z,40.50
2022-08-24T07:00:57.143Z,39.90
2022-08-24T07:03:25.800Z,39.50
2022-08-24T07:06:04.805Z,39.40
2022-08-24T07:08:38.107Z,39.00
2022-08-24T07:11:06.027Z,38.80
2022-08-24T07:13:34.268Z,38.40
2022-08-24T07:16:02.630Z,37.80
2022-08-24T07:18:33.314Z,37.40
2022-08-24T07:21:04.313Z,37.00
2022-08-24T07:23:42.988Z,36.80
2022-08-24T07:26:18.861Z,36.50
2022-08-24T07:29:05.560Z,36.20
2022-08-24T07:31:43.166Z,35.90
2022-08-24T07:34:16.825Z,35.80
2022-08-24T07:36:45.147Z,35.70
2022-08-24T07:39:13.984Z,35.20
2022-08-24T07:42:11.451Z,34.90
2022-08-24T07:44:32.438Z,34.80
2022-08-24T07:47:15.064Z,34.70
2022-08-24T07:49:49.386Z,34.30
2022-08-24T07:52:17.035Z,34.30
2022-08-24T07:54:46.713Z,34.10
2022-08-24T07:57:15.674Z,33.70
2022-08-24T07:59:43.324Z,33.70
2022-08-24T08:02:11.666Z,33.40
2022-08-24T08:04:45.088Z,33.00
2022-08-24T08:07:14.532Z,32.70
2022-08-24T08:09:42.668Z,32.50
2022-08-24T08:12:12.979Z,32.40
2022-08-24T08:14:53.010Z,32.20
2022-08-24T08:17:20.834Z,31.60
2022-08-24T08:19:48.452Z,31.50
2022-08-24T08:22:34.332Z,31.40
2022-08-24T08:25:42.424Z,31.00
2022-08-24T08:28:25.683Z,31.10
2022-08-24T08:30:54.041Z,30.90
2022-08-24T08:33:21.738Z,30.80
2022-08-24T08:35:49.608Z,30.70
2022-08-24T08:38:17.335Z,30.70
2022-08-24T08:40:45.186Z,30.40
2022-08-24T08:43:57.379Z,30.40
2022-08-24T08:46:43.141Z,30.50
2022-08-24T08:49:45.928Z,30.40
2022-08-24T08:52:43.656Z,30.00
2022-08-24T08:55:45.344Z,30.40
2022-08-24T08:58:22.825Z,30.50
2022-08-24T09:01:06.423Z,30.10
2022-08-24T09:04:09.594Z,30.30
2022-08-24T09:07:28.854Z,30.50
2022-08-24T09:10:34.516Z,30.00
2022-08-24T09:13:11.239Z,30.20
2022-08-24T09:15:59.443Z,30.40
2022-08-24T09:18:48.839Z,31.20
2022-08-24T09:21:54.715Z,30.00
2022-08-24T09:24:46.568Z,30.90
2022-08-24T09:27:43.740Z,30.30
2022-08-24T09:30:25.286Z,30.50
2022-08-24T09:33:17.125Z,30.30
2022-08-24T09:36:08.994Z,30.40
2022-08-24T09:38:56.239Z,30.90
2022-08-24T09:41:26.496Z,30.60
2022-08-24T09:44:07.285Z,30.60
2022-08-24T09:46:59.890Z,31.10
2022-08-24T09:49:30.262Z,31.10
2022-08-24T09:52:19.597Z,31.00
2022-08-24T09:54:46.883Z,31.50
2022-08-24T09:57:50.262Z,31.60
2022-08-24T10:00:30.131Z,31.70
2022-08-24T10:03:37.715Z,32.20
2022-08-24T10:06:22.436Z,32.80
2022-08-24T10:08:59.848Z,32.60
2022-08-24T10:11:43.560Z,32.80
2022-08-24T10:14:29.363Z,33.20
2022-08-24T10:17:09.763Z,33.60
2022-08-24T10:19:55.515Z,34.60
2022-08-24T10:22:59.099Z,35.10
2022-08-24T10:25:37.407Z,36.00
2022-08-24T10:28:35.167Z,36.30
2022-08-24T10:31:12.066Z,36.30
2022-08-24T10:33:56.042Z,37.00
2022-08-24T10:36:36.287Z,37.80
2022-08-24T10:39:46.889Z,37.80
2022-08-24T10:43:06.387Z,38.50
2022-08-24T10:46:18.734Z,38.50
2022-08-24T10:49:18.356Z,38.70
2022-08-24T10:51:51.714Z,39.50
2022-08-24T10:54:20.412Z,39.60
2022-08-24T10:57:26.831Z,39.30
2022-08-24T11:00:01.151Z,39.40
2022-08-24T11:02:39.528Z,40.00
2022-08-24T11:05:10.061Z,40.00
2022-08-24T11:07:51.984Z,40.00
2022-08-24T11:10:27.881Z,39.40
2022-08-24T11:12:55.963Z,39.40
2022-08-24T11:15:28.179Z,40.30
2022-08-24T11:17:58.493Z,39.70
2022-08-24T11:20:33.363Z,39.70
2022-08-24T11:23:05.245Z,39.70
2022-08-24T11:25:36.604Z,39.90
2022-08-24T11:28:16.002Z,40.20
2022-08-24T11:30:43.583Z,40.30
2022-08-24T11:33:49.459Z,40.40
2022-08-24T11:36:21.543Z,40.20
2022-08-24T11:39:09.223Z,40.50
2022-08-24T11:41:50.916Z,40.00
2022-08-24T11:44:24.939Z,39.80
2022-08-24T11:47:19.859Z,39.90
2022-08-24T11:50:14.437Z,39.30
2022-08-24T11:52:56.904Z,38.70
2022-08-24T11:56:00.450Z,39.10
2022-08-24T11:58:38.610Z,38.70
2022-08-24T12:01:12.260Z,38.60
2022-08-24T12:03:52.478Z,38.90
2022-08-24T12:06:54.924Z,38.20
2022-08-24T12:09:37.479Z,37.60
2022-08-24T12:12:23.134Z,37.90
2022-08-24T12:15:00.361Z,38.00
2022-08-24T12:17:35.682Z,38.20
2022-08-24T12:20:29.036Z,37.90
2022-08-24T12:23:02.141Z,37.90
2022-08-24T12:25:50.891Z,38.40
2022-08-24T12:28:38.718Z,38.50
2022-08-24T12:31:21.847Z,38.50
2022-08-24T12:33:54.073Z,38.00
2022-08-24T12:36:33.708Z,38.20
2022-08-24T12:39:12.890Z,38.30
2022-08-24T12:42:14.592Z,37.80
2022-08-24T12:44:53.741Z,37.80
2022-08-24T12:47:40.860Z,37.90
2022-08-24T12:50:24.604Z,38.10
2022-08-24T12:53:19.248Z,37.80
2022-08-24T12:55:53.733Z,37.60
2022-08-24T12:58:54.488Z,37.50
2022-08-24T13:01:33.669Z,37.20
2022-08-24T13:04:19.411Z,37.20
2022-08-24T13:06:59.812Z,37.20
2022-08-24T13:09:57.900Z,37.50
2022-08-24T13:12:43.967Z,37.70
2022-08-24T13:15:23.484Z,37.90
2022-08-24T13:17:59.024Z,38.10
2022-08-24T13:20:50.049Z,38.20
2022-08-24T13:23:20.827Z,38.60
2022-08-24T13:25:51.317Z,38.70
2022-08-24T13:28:22.717Z,38.80
2022-08-24T13:31:05.711Z,38.90
2022-08-24T13:33:46.844Z,38.50
2022-08-24T13:36:44.893Z,38.60
2022-08-24T13:39:37.462Z,38.60
2022-08-24T13:42:33.575Z,39.10
2022-08-24T13:45:12.655Z,38.90
2022-08-24T13:48:07.120Z,39.30
2022-08-24T13:51:16.743Z,39.60
2022-08-24T13:54:15.604Z,39.70
2022-08-24T13:57:05.855Z,39.70
2022-08-24T13:59:51.823Z,39.60
2022-08-24T14:02:44.972Z,39.30
2022-08-24T14:05:34.212Z,39.40
2022-08-24T14:08:13.435Z,39.30
2022-08-24T14:11:07.358Z,39.30
2022-08-24T14:14:03.433Z,39.60
2022-08-24T14:17:19.429Z,39.30
2022-08-24T14:19:50.898Z,39.80
2022-08-24T14:22:46.739Z,40.00
2022-08-24T14:25:21.690Z,40.30
2022-08-24T14:28:12.837Z,40.70
2022-08-24T14:30:43.546Z,41.20
2022-08-24T14:33:33.070Z,41.90
2022-08-24T14:36:14.516Z,42.10
2022-08-24T14:39:01.135Z,42.50
2022-08-24T14:42:08.487Z,42.80
2022-08-24T14:44:59.423Z,43.20
2022-08-24T14:47:39.152Z,43.60
2022-08-24T14:50:20.301Z,43.70
2022-08-24T14:53:32.427Z,44.10
2022-08-24T14:56:25.063Z,44.10
2022-08-24T14:58:52.591Z,45.20
2022-08-24T15:01:41.740Z,45.60
2022-08-24T15:04:45.237Z,45.50
2022-08-24T15:07:29.405Z,45.70
2022-08-24T15:09:58.269Z,46.10
2022-08-24T15:12:58.068Z,46.30
2022-08-24T15:15:51.855Z,46.40
2022-08-24T15:18:30.067Z,46.90
2022-08-24T15:21:23.025Z,47.10
2022-08-24T15:24:09.700Z,47.00
2022-08-24T15:27:10.280Z,47.20
2022-08-24T15:29:49.471Z,46.80
2022-08-24T15:32:17.414Z,47.30
2022-08-24T15:34:54.922Z,47.40
2022-08-24T15:37:28.323Z,47.00
2022-08-24T15:39:55.967Z,47.10
2022-08-24T15:42:24.290Z,46.90
2022-08-24T15:44:53.095Z,47.00
2022-08-24T15:47:29.279Z,47.30
2022-08-24T15:50:06.465Z,47.10
2022-08-24T15:52:43.099Z,47.10
2022-08-24T15:55:42.632Z,47.20
2022-08-24T15:58:29.260Z,46.80
2022-08-24T16:01:28.583Z,47.20
2022-08-24T16:03:59.668Z,47.10
2022-08-24T16:06:38.235Z,47.10
2022-08-24T16:09:24.365Z,47.00
2022-08-24T16:12:13.991Z,47.20
2022-08-24T16:14:56.450Z,47.20
2022-08-24T16:17:33.334Z,47.20
2022-08-24T16:20:30.330Z,47.20
2022-08-24T16:23:07.530Z,47.00
2022-08-24T16:25:43.244Z,47.30
2022-08-24T16:28:33.862Z,47.40
2022-08-24T16:31:07.718Z,47.10
2022-08-24T16:33:45.386Z,47.40
2022-08-24T16:36:18.448Z,47.10
2022-08-24T16:38:49.349Z,47.10
2022-08-24T16:41:21.215Z,47.50
2022-08-24T16:43:49.188Z,47.40
2022-08-24T16:46:22.908Z,47.50
2022-08-24T16:48:50.680Z,47.60
2022-08-24T16:51:18.364Z,47.80
2022-08-24T16:53:45.871Z,47.80
2022-08-24T16:56:16.506Z,48.00
2022-08-24T16:58:47.518Z,48.30
2022-08-24T17:01:15.620Z,48.40
2022-08-24T17:03:43.310Z,48.70
2022-08-24T17:06:12.318Z,48.60
2022-08-24T17:08:40.618Z,48.70
2022-08-24T17:11:08.547Z,48.80
2022-08-24T17:13:51.336Z,48.70
2022-08-24T17:16:20.847Z,48.90
2022-08-24T17:18:48.381Z,49.30
2022-08-24T17:21:17.119Z,49.20
2022-08-24T17:23:45.226Z,49.20
2022-08-24T17:26:20.264Z,49.20
2022-08-24T17:28:51.476Z,49.40
2022-08-24T17:31:19.285Z,49.50
2022-08-24T17:33:47.041Z,49.50
2022-08-24T17:36:16.125Z,49.80
2022-08-24T17:38:46.162Z,49.70
2022-08-24T17:41:14.362Z,49.80
2022-08-24T17:43:46.021Z,49.70
2022-08-24T17:46:15.054Z,50.40
2022-08-24T17:48:44.827Z,49.90
2022-08-24T17:51:13.525Z,50.00
2022-08-24T17:53:41.343Z,50.00
2022-08-24T17:56:09.686Z,50.20
2022-08-24T17:58:57.315Z,50.10
2022-08-24T18:01:25.686Z,50.30
2022-08-24T18:03:53.346Z,50.20
2022-08-24T18:06:23.671Z,50.30
2022-08-24T18:08:52.040Z,50.70
2022-08-24T18:11:22.738Z,50.50
2022-08-24T18:13:54.283Z,50.60
2022-08-24T18:16:24.870Z,50.60
2022-08-24T18:18:53.487Z,50.80
2022-08-24T18:21:22.572Z,51.20
2022-08-24T18:23:50.855Z,51.40
2022-08-24T18:26:28.087Z,51.40
2022-08-24T18:29:06.657Z,51.80
2022-08-24T18:31:34.202Z,51.80
2022-08-24T18:34:01.750Z,51.60
2022-08-24T18:36:29.401Z,51.70
2022-08-24T18:38:57.182Z,51.80
2022-08-24T18:41:33.285Z,52.00
2022-08-24T18:44:05.012Z,52.50
2022-08-24T18:46:32.966Z,52.60
2022-08-24T18:49:01.893Z,52.80
2022-08-24T18:51:36.524Z,53.00
2022-08-24T18:54:07.909Z,53.60
2022-08-24T18:56:35.637Z,53.70
2022-08-24T18:59:04.989Z,54.30
2022-08-24T19:01:57.086Z,54.30
2022-08-24T19:04:29.464Z,54.50
2022-08-24T19:07:01.019Z,54.80
2022-08-24T19:09:33.435Z,54.90
2022-08-24T19:12:03.368Z,55.40
2022-08-24T19:14:31.727Z,55.70
2022-08-24T19:16:58.991Z,55.90
2022-08-24T19:19:26.624Z,56.10
2022-08-24T19:21:54.202Z,56.10
2022-08-24T19:24:26.003Z,56.20
2022-08-24T19:26:56.646Z,56.90
2022-08-24T19:29:54.076Z,57.20
2022-08-24T19:32:23.131Z,57.40
2022-08-24T19:34:54.530Z,57.60
2022-08-24T19:37:23.145Z,57.70
2022-08-24T19:39:51.023Z,57.70
2022-08-24T19:42:19.323Z,57.80
2022-08-24T19:45:05.213Z,58.00
2022-08-24T19:47:34.601Z,58.00
2022-08-24T19:50:05.472Z,58.10
2022-08-24T19:52:33.820Z,58.50
2022-08-24T19:55:02.749Z,58.50
2022-08-24T19:57:33.004Z,58.70
2022-08-24T20:00:25.016Z,58.70
2022-08-24T20:02:56.096Z,59.00
2022-08-24T20:05:28.197Z,59.00
2022-08-24T20:07:56.479Z,59.40
2022-08-24T20:10:25.087Z,59.40
2022-08-24T20:12:53.184Z,59.60
2022-08-24T20:15:21.123Z,59.90
2022-08-24T20:17:50.192Z,60.60
2022-08-24T20:20:20.668Z,59.90
2022-08-24T20:22:48.363Z,60.00
2022-08-24T20:25:15.944Z,60.00
2022-08-24T20:27:45.664Z,60.30
2022-08-24T20:30:15.423Z,60.90
2022-08-24T20:32:42.900Z,60.80
2022-08-24T20:35:10.399Z,61.70
2022-08-24T20:37:40.455Z,61.20
2022-08-24T20:40:13.076Z,61.30
2022-08-24T20:42:41.621Z,61.30
2022-08-24T20:45:11.555Z,61.20
2022-08-24T20:47:45.672Z,61.40
2022-08-24T20:50:15.051Z,61.70
2022-08-24T20:52:42.474Z,61.50
2022-08-24T20:55:12.396Z,61.20
2022-08-24T20:57:45.419Z,61.50
2022-08-24T21:00:14.738Z,61.50
2022-08-24T21:02:42.191Z,61.50
2022-08-24T21:05:10.859Z,61.70
2022-08-24T21:07:39.183Z,62.30
2022-08-24T21:10:06.959Z,61.60
2022-08-24T21:12:34.632Z,62.20
2022-08-24T21:15:02.314Z,62.20
2022-08-24T21:17:29.682Z,62.40
2022-08-24T21:19:57.164Z,62.40
2022-08-24T21:22:24.981Z,62.60
2022-08-24T21:24:52.296Z,62.70
2022-08-24T21:27:19.823Z,62.90
2022-08-24T21:29:47.186Z,63.10
2022-08-24T21:32:32.995Z,63.30
2022-08-24T21:35:00.277Z,63.30
2022-08-24T21:37:27.599Z,63.50
2022-08-24T21:39:55.540Z,63.50
2022-08-24T21:42:24.167Z,63.40
2022-08-24T21:44:51.864Z,63.40
2022-08-24T21:47:19.445Z,63.70
2022-08-24T21:49:46.790Z,64.00
2022-08-24T21:52:14.348Z,64.10
2022-08-24T21:54:43.195Z,64.00
2022-08-24T21:57:10.915Z,64.10
2022-08-24T21:59:39.343Z,64.30
2022-08-24T22:02:07.295Z,64.70
2022-08-24T22:04:37.095Z,64.90
2022-08-24T22:07:04.764Z,65.00
2022-08-24T22:09:32.899Z,65.10
2022-08-24T22:12:00.157Z,65.90
2022-08-24T22:14:27.664Z,66.00
2022-08-24T22:16:55.550Z,66.00
2022-08-24T22:19:23.124Z,66.20
2022-08-24T22:21:50.751Z,66.20
2022-08-24T22:24:18.263Z,66.20
2022-08-24T22:26:45.635Z,66.20
2022-08-24T22:29:13.402Z,66.40
2022-08-24T22:31:43.449Z,66.30
2022-08-24T22:34:19.455Z,66.20
2022-08-24T22:36:48.783Z,66.50
2022-08-24T22:39:16.780Z,66.30
2022-08-24T22:41:44.384Z,66.60
2022-08-24T22:44:21.322Z,66.60
2022-08-24T22:46:54.679Z,66.80
2022-08-24T22:49:25.918Z,66.80
2022-08-24T22:51:53.989Z,66.80
2022-08-24T22:54:23.775Z,66.80
2022-08-24T22:56:53.367Z,67.00
2022-08-24T22:59:27.565Z,66.80
2022-08-24T23:01:57.076Z,66.90
2022-08-24T23:04:29.464Z,66.90
2022-08-24T23:06:57.013Z,66.90
2022-08-24T23:09:24.842Z,67.10
2022-08-24T23:11:52.525Z,67.50
2022-08-24T23:14:22.511Z,67.40
2022-08-24T23:16:50.403Z,67.40
2022-08-24T23:19:39.447Z,67.20
2022-08-24T23:22:08.834Z,67.40
2022-08-24T23:24:36.880Z,67.80
2022-08-24T23:27:06.074Z,67.70
2022-08-24T23:29:34.790Z,67.90
2022-08-24T23:32:02.993Z,68.00
2022-08-24T23:34:31.237Z,68.10
2022-08-24T23:36:58.832Z,68.10
2022-08-24T23:39:26.538Z,68.30
2022-08-24T23:41:54.187Z,68.20
2022-08-24T23:44:25.968Z,68.30
2022-08-24T23:46:53.841Z,68.20
2022-08-24T23:49:22.789Z,68.30
2022-08-24T23:51:50.987Z,68.50
2022-08-24T23:54:21.731Z,68.50
2022-08-24T23:56:50.396Z,68.60
2022-08-24T23:59:23.723Z,68.50
